Time;durP1;ratioP1;P1;durP2;ratioP2;P2;SDS_P1;SDS_P2;PMS_P1;PMS_P2;Temp;Humidity;BMP_temperature;BMP_pressure;BME280_temperature;BME280_humidity;BME280_pressure;Samples;Min_cycle;Max_cycle;Signal;HPM_P1;HPM_P2
2023/09/03 00:00:43;;;;;;;5.43;3.23;;;;;;;17.18;100.00;100886.14;1459280;89;21463;-77
2023/09/03 00:03:09;;;;;;;6.97;3.73;;;;;;;17.14;100.00;100885.13;1455561;89;21537;-77
2023/09/03 00:05:36;;;;;;;5.90;3.20;;;;;;;17.13;100.00;100880.80;1459929;89;21375;-78
2023/09/03 00:08:03;;;;;;;6.83;3.90;;;;;;;17.11;100.00;100873.45;1455794;89;22262;-77
2023/09/03 00:10:30;;;;;;;6.73;3.70;;;;;;;17.11;100.00;100873.45;1452243;89;21389;-78
2023/09/03 00:12:56;;;;;;;4.60;3.30;;;;;;;17.08;100.00;100875.16;1457329;89;22454;-77
2023/09/03 00:15:23;;;;;;;3.53;2.77;;;;;;;17.06;100.00;100879.88;1439961;89;22359;-78
2023/09/03 00:17:50;;;;;;;4.77;3.17;;;;;;;17.07;100.00;100880.19;1458970;89;21552;-78
2023/09/03 00:20:17;;;;;;;5.03;2.90;;;;;;;17.08;100.00;100879.67;1467682;89;21360;-78
2023/09/03 00:22:43;;;;;;;11.37;4.07;;;;;;;17.10;100.00;100879.83;1462387;89;21874;-78
2023/09/03 00:25:09;;;;;;;7.13;3.70;;;;;;;17.07;100.00;100877.52;1464875;89;22320;-78
2023/09/03 00:27:35;;;;;;;8.40;3.40;;;;;;;17.06;100.00;100878.53;1440740;89;21360;-77
2023/09/03 00:30:02;;;;;;;6.57;4.13;;;;;;;17.11;100.00;100879.31;1466434;89;21441;-78
2023/09/03 00:32:28;;;;;;;4.37;3.27;;;;;;;17.13;100.00;100878.64;1457575;89;21410;-77
2023/09/03 00:34:54;;;;;;;4.60;3.07;;;;;;;17.14;100.00;100873.09;1457972;89;22856;-78
2023/09/03 00:37:22;;;;;;;4.43;3.40;;;;;;;17.13;100.00;100874.12;1445773;89;21577;-78
2023/09/03 00:39:48;;;;;;;5.00;3.30;;;;;;;17.13;100.00;100874.12;1457495;89;21493;-77
2023/09/03 00:42:14;;;;;;;13.30;3.47;;;;;;;17.12;100.00;100864.44;1463296;89;21368;-78
2023/09/03 00:44:40;;;;;;;5.60;3.03;;;;;;;17.10;100.00;100862.44;1462048;89;21522;-78
2023/09/03 00:47:07;;;;;;;5.33;3.53;;;;;;;17.09;100.00;100862.12;1465572;89;21375;-78
2023/09/03 00:49:37;;;;;;;6.97;2.90;;;;;;;17.06;100.00;100859.81;1462971;89;21544;-78
2023/09/03 00:52:04;;;;;;;10.50;3.20;;;;;;;17.04;100.00;100859.16;1469876;89;22521;-78
2023/09/03 00:54:30;;;;;;;3.50;2.80;;;;;;;16.99;100.00;100850.83;1454914;89;22344;-78
2023/09/03 00:56:57;;;;;;;6.17;3.27;;;;;;;16.95;100.00;100854.89;1449025;89;21507;-78
2023/09/03 00:59:24;;;;;;;6.00;3.13;;;;;;;16.92;100.00;100847.23;1460823;89;21434;-78
2023/09/03 01:01:51;;;;;;;7.10;2.90;;;;;;;16.88;100.00;100846.73;1463453;89;21582;-77
2023/09/03 01:04:18;;;;;;;8.17;3.10;;;;;;;16.87;100.00;100845.59;1442007;89;21397;-78
2023/09/03 01:06:48;;;;;;;6.57;2.53;;;;;;;16.89;100.00;100848.92;1459930;89;21526;-79
2023/09/03 01:09:17;;;;;;;6.12;2.62;;;;;;;16.86;100.00;100842.09;1463021;89;22447;-78
2023/09/03 01:12:13;;;;;;;9.33;2.93;;;;;;;16.84;100.00;100847.28;1462472;89;21464;-78
2023/09/03 01:15:03;;;;;;;8.73;2.60;;;;;;;16.82;100.00;100838.60;1462683;89;21486;-78
2023/09/03 01:17:50;;;;;;;16.10;3.87;;;;;;;16.82;100.00;100839.42;1458420;89;21448;-79
2023/09/03 01:20:20;;;;;;;15.50;4.97;;;;;;;16.79;100.00;100841.63;1462522;89;21410;-78
2023/09/03 01:23:41;;;;;;;7.20;4.53;;;;;;;16.72;100.00;100836.66;1456862;89;21515;-78
2023/09/03 01:26:13;;;;;;;29.53;5.80;;;;;;;16.61;100.00;100844.06;1468157;89;21330;-78
2023/09/03 01:28:42;;;;;;;13.40;3.67;;;;;;;16.50;100.00;100844.97;1456026;89;21367;-78
2023/09/03 01:31:15;;;;;;;7.77;3.33;;;;;;;16.45;100.00;100845.48;1462093;89;21405;-78
2023/09/03 01:33:45;;;;;;;7.60;3.80;;;;;;;16.46;100.00;100843.16;1446039;89;21411;-78
2023/09/03 01:36:12;;;;;;;13.80;3.47;;;;;;;16.45;100.00;100834.80;1458057;89;21633;-78
2023/09/03 01:38:39;;;;;;;6.93;2.83;;;;;;;16.46;100.00;100839.16;1437403;89;22299;-79
2023/09/03 01:41:07;;;;;;;8.60;3.20;;;;;;;16.44;100.00;100841.98;1458450;89;21433;-78
2023/09/03 01:46:45;;;;;;;3.27;2.37;;;;;;;16.37;100.00;100837.51;1460579;89;21428;-77
2023/09/03 01:49:20;;;;;;;9.35;2.22;;;;;;;16.32;100.00;100835.89;1434746;89;21333;-78
2023/09/03 01:52:04;;;;;;;2.57;1.70;;;;;;;16.27;100.00;100840.92;1458607;89;22364;-78
2023/09/03 01:54:36;;;;;;;5.37;2.30;;;;;;;16.20;100.00;100833.61;1457462;89;21694;-78
2023/09/03 01:57:28;;;;;;;5.73;2.27;;;;;;;16.20;100.00;100835.45;1452036;89;22596;-78
2023/09/03 01:59:59;;;;;;;7.07;2.90;;;;;;;16.19;100.00;100832.44;1441046;89;21368;-78
2023/09/03 02:02:26;;;;;;;;;;;;;;;16.20;100.00;100832.27;1465502;88;21377;-79
2023/09/03 02:04:54;;;;;;;4.43;2.67;;;;;;;16.20;100.00;100826.94;1443165;89;20350;-78
2023/09/03 02:07:21;;;;;;;14.77;3.13;;;;;;;16.21;100.00;100823.24;1461336;89;21845;-79
2023/09/03 02:09:47;;;;;;;11.00;2.27;;;;;;;16.25;100.00;100815.70;1466689;89;21385;-78
2023/09/03 02:12:16;;;;;;;6.53;2.90;;;;;;;16.27;100.00;100818.22;1455654;89;22313;-78
2023/09/03 02:14:42;;;;;;;7.93;3.40;;;;;;;16.27;100.00;100820.89;1445493;89;21719;-78
2023/09/03 02:17:09;;;;;;;13.53;3.43;;;;;;;16.20;100.00;100813.58;1462094;89;22271;-78
2023/09/03 02:19:35;;;;;;;12.47;3.47;;;;;;;16.16;100.00;100810.91;1462494;89;21416;-78
2023/09/03 02:22:01;;;;;;;8.57;3.70;;;;;;;16.11;100.00;100807.10;1442644;89;21325;-78
2023/09/03 02:24:27;;;;;;;14.27;3.63;;;;;;;16.08;100.00;100812.28;1414827;92;21646;-77
2023/09/03 02:26:54;;;;;;;6.07;3.60;;;;;;;16.08;100.00;100814.13;1460287;89;22330;-78
2023/09/03 02:29:21;;;;;;;10.23;3.63;;;;;;;16.11;100.00;100810.63;1460873;89;21379;-78
2023/09/03 02:31:48;;;;;;;8.07;3.80;;;;;;;16.16;100.00;100808.75;1456324;89;21525;-77
2023/09/03 02:34:14;;;;;;;9.17;3.87;;;;;;;16.23;100.00;100815.07;1459897;89;21296;-78
2023/09/03 02:36:41;;;;;;;5.10;3.60;;;;;;;16.28;100.00;100818.53;1460854;89;21406;-78
2023/09/03 02:39:07;;;;;;;13.03;3.50;;;;;;;16.33;100.00;100808.16;1454715;89;22390;-78
2023/09/03 02:41:34;;;;;;;18.97;3.87;;;;;;;16.38;100.00;100813.81;1433285;89;21429;-78
2023/09/03 02:44:02;;;;;;;11.50;3.93;;;;;;;16.42;100.00;100815.12;1449559;89;21325;-78
2023/09/03 02:46:29;;;;;;;11.50;4.00;;;;;;;16.45;100.00;100810.75;1445772;89;21507;-78
2023/09/03 02:48:55;;;;;;;11.20;4.37;;;;;;;16.50;100.00;100807.05;1454627;89;21407;-78
2023/09/03 02:51:21;;;;;;;5.03;3.53;;;;;;;16.54;100.00;100808.86;1453587;89;21257;-78
2023/09/03 02:53:47;;;;;;;8.23;2.77;;;;;;;16.57;100.00;100806.69;1459696;89;23145;-78
2023/09/03 02:56:15;;;;;;;7.23;3.33;;;;;;;16.59;100.00;100799.30;1463805;89;21487;-78
2023/09/03 02:58:42;;;;;;;5.40;4.27;;;;;;;16.60;100.00;100809.00;1463365;89;21572;-78
2023/09/03 03:01:12;;;;;;;11.17;4.10;;;;;;;16.60;100.00;100803.66;1455102;89;21444;-78
2023/09/03 03:03:40;;;;;;;4.50;3.95;;;;;;;16.53;100.00;100796.02;1449780;89;21400;-78
2023/09/03 03:06:06;;;;;;;4.00;3.53;;;;;;;16.50;100.00;100803.05;1453623;89;21399;-78
2023/09/03 03:08:34;;;;;;;9.80;3.60;;;;;;;16.47;100.00;100795.39;1465631;89;21546;-78
2023/09/03 03:11:12;;;;;;;4.57;3.53;;;;;;;16.48;100.00;100789.02;1455340;89;21282;-78
2023/09/03 03:13:41;;;;;;;5.07;3.33;;;;;;;16.50;100.00;100789.69;1449825;89;21642;-77
2023/09/03 03:16:14;;;;;;;4.40;3.47;;;;;;;16.50;100.00;100793.70;1442456;89;21559;-78
2023/09/03 03:18:43;;;;;;;5.07;4.13;;;;;;;16.49;100.00;100801.39;1459401;89;22308;-78
2023/09/03 03:21:17;;;;;;;5.17;3.10;;;;;;;16.47;100.00;100800.73;1461225;89;21384;-78
2023/09/03 03:23:47;;;;;;;5.07;3.20;;;;;;;16.46;100.00;100799.08;1458817;89;21474;-77
2023/09/03 03:26:14;;;;;;;6.72;3.22;;;;;;;16.43;100.00;100798.09;1463792;89;22293;-78
2023/09/03 03:28:40;;;;;;;5.30;3.27;;;;;;;16.40;100.00;100799.76;1458366;89;21506;-78
2023/09/03 03:31:18;;;;;;;7.33;3.53;;;;;;;16.41;100.00;100800.11;1444392;89;21378;-78
2023/09/03 03:33:47;;;;;;;3.63;3.10;;;;;;;16.38;100.00;100799.95;1423108;90;21554;-78
2023/09/03 03:36:16;;;;;;;4.47;3.70;;;;;;;16.32;100.00;100801.17;1451327;89;21399;-78
2023/09/03 03:38:43;;;;;;;3.90;3.33;;;;;;;16.30;100.00;100798.66;1458912;89;22264;-77
2023/09/03 03:41:18;;;;;;;4.57;3.37;;;;;;;16.28;100.00;100795.83;1468163;87;21517;-78
2023/09/03 03:43:48;;;;;;;6.03;3.80;;;;;;;16.27;100.00;100794.18;1413476;92;21304;-78
2023/09/03 03:46:17;;;;;;;3.03;2.47;;;;;;;16.27;100.00;100792.84;1435638;89;21451;-78
2023/09/03 03:48:44;;;;;;;3.87;3.47;;;;;;;16.29;100.00;100793.00;1454447;89;23406;-78
2023/09/03 03:51:11;;;;;;;3.33;2.47;;;;;;;16.29;100.00;100792.17;1454697;89;21868;-78
2023/09/03 03:53:38;;;;;;;4.53;2.67;;;;;;;16.31;100.00;100792.81;1434441;91;22176;-78
2023/09/03 03:56:07;;;;;;;4.57;2.67;;;;;;;16.30;100.00;100799.17;1434154;91;21481;-78
2023/09/03 03:58:54;;;;;;;3.67;3.00;;;;;;;16.29;100.00;100802.86;1447739;89;21332;-77
2023/09/03 04:01:42;;;;;;;2.97;2.20;;;;;;;16.30;100.00;100804.00;1463407;87;21367;-77
2023/09/03 04:04:09;;;;;;;2.23;2.03;;;;;;;16.31;100.00;100808.84;1449017;89;22572;-78
2023/09/03 04:06:35;;;;;;;4.77;2.23;;;;;;;16.24;100.00;100809.54;1444865;90;21999;-78
2023/09/03 04:11:35;;;;;;;3.00;2.60;;;;;;;16.19;100.00;100815.08;1518080;85;22766;-76
2023/09/03 04:14:01;;;;;;;4.07;2.30;;;;;;;16.14;100.00;100819.63;1483809;88;21603;-77
2023/09/03 04:19:06;;;;;;;4.57;2.13;;;;;;;16.22;100.00;100821.41;1514693;85;22758;-77
2023/09/03 04:21:33;;;;;;;3.80;2.73;;;;;;;16.23;100.00;100819.08;1481104;88;23171;-77
2023/09/03 04:23:59;;;;;;;5.27;2.40;;;;;;;16.28;100.00;100820.70;1478603;87;22401;-76
2023/09/03 04:26:25;;;;;;;4.17;2.53;;;;;;;16.31;100.00;100824.34;1492136;88;21396;-77
2023/09/03 04:28:51;;;;;;;7.23;2.33;;;;;;;16.39;100.00;100827.48;1478380;88;21663;-77
2023/09/03 04:31:18;;;;;;;6.87;2.87;;;;;;;16.44;100.00;100825.95;1466890;89;21478;-77
2023/09/03 04:33:45;;;;;;;4.37;2.30;;;;;;;16.52;100.00;100823.75;1460750;88;22460;-76
2023/09/03 04:36:11;;;;;;;4.37;2.03;;;;;;;16.57;100.00;100822.72;1465651;87;21359;-77
2023/09/03 04:38:38;;;;;;;5.77;2.23;;;;;;;16.66;100.00;100824.33;1458572;88;21648;-77
2023/09/03 04:41:06;;;;;;;2.93;2.33;;;;;;;16.69;100.00;100823.97;1440315;89;22516;-77
2023/09/03 04:43:32;;;;;;;10.10;2.23;;;;;;;16.73;100.00;100820.94;1356808;91;22308;-77
2023/09/03 04:45:59;;;;;;;6.27;3.13;;;;;;;16.77;100.00;100823.59;1374676;89;21390;-76
2023/09/03 04:48:25;;;;;;;8.33;3.77;;;;;;;16.82;100.00;100827.91;1365754;89;22212;-77
2023/09/03 04:50:52;;;;;;;3.33;3.03;;;;;;;16.85;100.00;100831.05;1494441;89;21560;-76
2023/09/03 04:53:18;;;;;;;6.27;3.27;;;;;;;16.89;100.00;100828.36;1379207;89;21302;-77
2023/09/03 04:55:44;;;;;;;4.23;3.27;;;;;;;16.95;100.00;100824.14;1440214;89;22286;-77
2023/09/03 04:58:10;;;;;;;4.93;3.80;;;;;;;16.97;100.00;100816.75;1381931;89;21478;-75
2023/09/03 05:00:37;;;;;;;6.23;3.57;;;;;;;17.01;100.00;100814.06;1337943;93;21384;-77
2023/09/03 05:03:04;;;;;;;12.30;3.70;;;;;;;17.03;100.00;100813.86;1365439;90;21348;-77
2023/09/03 05:05:31;;;;;;;6.87;3.27;;;;;;;17.03;100.00;100815.20;1375231;90;21442;-77
2023/09/03 05:07:57;;;;;;;4.73;3.27;;;;;;;17.04;100.00;100807.52;1366110;91;21467;-77
2023/09/03 05:10:25;;;;;;;8.60;3.60;;;;;;;17.06;100.00;100807.67;1367007;91;21346;-77
2023/09/03 05:12:51;;;;;;;7.27;3.57;;;;;;;17.10;100.00;100810.80;1364922;91;21548;-77
2023/09/03 05:15:17;;;;;;;7.27;3.37;;;;;;;17.16;100.00;100814.61;1378287;90;22241;-76
2023/09/03 05:17:43;;;;;;;4.37;3.40;;;;;;;17.18;100.00;100818.77;1361107;91;21436;-77
2023/09/03 05:20:10;;;;;;;4.73;3.97;;;;;;;17.23;100.00;100816.86;1389495;90;21457;-77
2023/09/03 05:22:38;;;;;;;4.10;3.70;;;;;;;17.26;100.00;100817.35;1367680;90;21342;-77
2023/09/03 05:25:05;;;;;;;8.43;3.80;;;;;;;17.29;100.00;100808.11;1390338;88;21980;-77
2023/09/03 05:27:32;;;;;;;5.17;3.87;;;;;;;17.33;100.00;100805.41;1378040;89;21964;-77
2023/09/03 05:29:58;;;;;;;9.73;4.40;;;;;;;17.34;100.00;100802.53;1391218;89;21450;-77
2023/09/03 05:32:24;;;;;;;8.30;4.20;;;;;;;17.35;100.00;100809.56;1361873;91;21453;-77
2023/09/03 05:34:51;;;;;;;3.93;3.53;;;;;;;17.40;100.00;100807.66;1541688;88;21346;-77
2023/09/03 05:37:17;;;;;;;11.37;4.50;;;;;;;17.44;100.00;100804.96;1387330;88;21779;-77
2023/09/03 05:39:44;;;;;;;5.23;4.50;;;;;;;17.47;100.00;100808.61;1391293;89;22255;-78
2023/09/03 05:42:10;;;;;;;8.73;3.73;;;;;;;17.53;100.00;100807.05;1403794;87;21265;-77
2023/09/03 05:44:36;;;;;;;4.90;3.97;;;;;;;17.63;100.00;100810.26;1398411;88;21609;-79
2023/09/03 05:47:02;;;;;;;8.27;3.73;;;;;;;17.70;100.00;100811.20;1391391;88;21384;-77
2023/09/03 05:49:28;;;;;;;8.10;4.92;;;;;;;17.74;100.00;100814.33;1378847;89;21370;-77
2023/09/03 05:51:54;;;;;;;8.73;3.70;;;;;;;17.71;100.00;100814.70;1382842;90;21384;-77
2023/09/03 05:54:21;;;;;;;4.57;4.17;;;;;;;17.74;100.00;100816.49;1396795;88;21579;-76
2023/09/03 05:56:47;;;;;;;9.73;5.13;;;;;;;17.73;100.00;100811.34;1398469;87;21353;-77
2023/09/03 05:59:14;;;;;;;7.40;5.23;;;;;;;17.68;100.00;100810.55;1404101;87;21383;-77
2023/09/03 06:01:40;;;;;;;7.80;4.50;;;;;;;17.62;100.00;100811.80;1557820;87;21486;-77
2023/09/03 06:04:09;;;;;;;5.08;3.85;;;;;;;17.59;100.00;100821.84;1396317;88;21338;-76
2023/09/03 06:06:38;;;;;;;4.70;4.25;;;;;;;17.57;100.00;100822.53;1393244;90;21405;-77
2023/09/03 06:09:06;;;;;;;6.65;4.42;;;;;;;17.54;100.00;100821.56;1376975;89;21413;-77
2023/09/03 06:11:33;;;;;;;6.93;4.53;;;;;;;17.54;100.00;100820.22;1354183;91;21448;-77
2023/09/03 06:14:00;;;;;;;5.17;4.67;;;;;;;17.55;100.00;100820.56;1387748;90;21265;-77
2023/09/03 06:16:26;;;;;;;6.72;4.05;;;;;;;17.54;100.00;100836.28;1388774;88;22167;-77
2023/09/03 06:18:53;;;;;;;7.33;4.77;;;;;;;17.57;100.00;100834.57;1414041;87;21338;-77
2023/09/03 06:21:20;;;;;;;5.67;4.33;;;;;;;17.58;100.00;100840.27;1396770;88;21400;-76
2023/09/03 06:23:46;;;;;;;4.05;3.67;;;;;;;17.62;100.00;100850.61;1374750;90;21483;-77
2023/09/03 06:26:13;;;;;;;10.50;5.10;;;;;;;17.60;100.00;100859.63;1402685;87;22204;-76
2023/09/03 06:28:40;;;;;;;8.43;4.60;;;;;;;17.60;100.00;100877.54;1394147;87;21439;-76
2023/09/03 06:31:06;;;;;;;6.08;4.95;;;;;;;17.56;100.00;100878.93;1378999;90;21267;-76
2023/09/03 06:33:33;;;;;;;6.80;5.07;;;;;;;17.52;100.00;100899.88;1378989;90;21324;-76
2023/09/03 06:35:59;;;;;;;6.90;5.60;;;;;;;17.49;100.00;100908.27;1393282;89;21317;-76
2023/09/03 06:38:25;;;;;;;10.53;4.90;;;;;;;17.47;100.00;100906.27;1383879;90;21438;-75
2023/09/03 06:40:51;;;;;;;8.53;5.17;;;;;;;17.42;100.00;100922.03;1346849;91;22156;-76
2023/09/03 06:43:18;;;;;;;9.48;5.20;;;;;;;17.43;100.00;100929.55;1353750;91;21320;-76
2023/09/03 06:45:44;;;;;;;9.10;6.13;;;;;;;17.39;100.00;100929.08;1388653;90;21368;-75
2023/09/03 06:48:10;;;;;;;8.93;4.95;;;;;;;17.33;100.00;100925.80;1390551;89;21361;-77
2023/09/03 06:50:37;;;;;;;8.27;5.83;;;;;;;17.29;100.00;100917.78;1379813;90;22774;-76
2023/09/03 06:53:04;;;;;;;9.67;5.23;;;;;;;17.23;100.00;100913.16;1377167;90;21391;-76
2023/09/03 06:55:31;;;;;;;7.13;4.97;;;;;;;17.19;100.00;100902.50;1379631;90;21391;-76
2023/09/03 06:57:58;;;;;;;9.33;4.97;;;;;;;17.18;100.00;100883.46;1378675;90;21355;-76
2023/09/03 07:00:24;;;;;;;7.03;5.80;;;;;;;17.17;100.00;100880.44;1404403;88;21430;-76
2023/09/03 07:02:50;;;;;;;11.93;5.13;;;;;;;17.15;100.00;100875.29;1548949;88;21377;-76
2023/09/03 07:05:16;;;;;;;7.03;5.33;;;;;;;17.18;100.00;100883.46;1391229;89;21367;-75
2023/09/03 07:07:42;;;;;;;10.07;6.00;;;;;;;17.19;100.00;100893.14;1398175;87;21412;-76
2023/09/03 07:10:09;;;;;;;7.30;4.53;;;;;;;17.21;100.00;100903.98;1403759;87;22470;-75
2023/09/03 07:12:35;;;;;;;6.03;4.73;;;;;;;17.22;100.00;100880.23;1397752;87;21353;-76
2023/09/03 07:15:02;;;;;;;13.00;6.20;;;;;;;17.25;100.00;100850.45;1397931;87;21368;-76
2023/09/03 07:17:28;;;;;;;7.57;4.73;;;;;;;17.28;100.00;100834.03;1385441;88;21355;-76
2023/09/03 07:19:55;;;;;;;8.57;4.80;;;;;;;17.35;100.00;100840.84;1523218;88;22374;-76
2023/09/03 07:22:21;;;;;;;25.47;6.17;;;;;;;17.43;100.00;100840.73;1384712;88;21368;-76
2023/09/03 07:24:52;;;;;;;7.30;4.70;;;;;;;17.52;100.00;100850.37;1378897;90;21383;-76
2023/09/03 07:27:19;;;;;;;5.50;4.33;;;;;;;17.63;100.00;100849.06;1528685;89;21376;-76
2023/09/03 07:29:45;;;;;;;15.80;5.00;;;;;;;17.75;100.00;100853.45;1378611;90;21376;-76
2023/09/03 07:32:11;;;;;;;10.32;3.95;;;;;;;17.85;100.00;100851.38;1381689;89;21472;-76
2023/09/03 07:34:37;;;;;;;6.80;3.90;;;;;;;17.97;100.00;100844.53;1380828;89;21390;-77
2023/09/03 07:37:04;;;;;;;6.78;4.47;;;;;;;18.07;100.00;100847.43;1384458;89;22315;-76
2023/09/03 07:39:30;;;;;;;6.37;4.03;;;;;;;18.20;100.00;100852.45;1389777;88;21460;-76
2023/09/03 07:41:57;;;;;;;8.40;4.00;;;;;;;18.32;100.00;100856.81;1378592;89;21481;-76
2023/09/03 07:44:23;;;;;;;6.95;3.85;;;;;;;18.47;100.00;100854.09;1390265;88;21500;-75
2023/09/03 07:46:50;;;;;;;6.83;3.70;;;;;;;18.59;100.00;100845.91;1557219;88;21317;-77
2023/09/03 07:49:16;;;;;;;6.28;3.62;;;;;;;18.67;100.00;100844.94;1374881;89;21334;-77
2023/09/03 07:51:42;;;;;;;4.28;3.67;;;;;;;18.67;100.00;100840.91;1397843;87;21493;-76
2023/09/03 07:54:09;;;;;;;4.20;3.72;;;;;;;18.75;100.00;100842.16;1400658;87;22123;-77
2023/09/03 07:56:35;;;;;;;7.47;3.60;;;;;;;18.89;100.00;100819.81;1369492;91;21393;-77
2023/09/03 07:59:01;;;;;;;4.90;3.92;;;;;;;19.09;100.00;100821.33;1376772;90;22269;-77
2023/09/03 08:01:27;;;;;;;4.12;3.17;;;;;;;19.21;100.00;100813.58;1399182;87;21472;-77
2023/09/03 08:03:53;;;;;;;4.87;3.65;;;;;;;19.30;100.00;100810.23;1336047;91;21340;-77
2023/09/03 08:06:19;;;;;;;3.95;3.52;;;;;;;19.43;100.00;100802.29;1376261;90;22174;-77
2023/09/03 08:08:53;;;;;;;14.68;4.03;;;;;;;19.61;100.00;100795.06;1361023;91;21319;-78
2023/09/03 08:11:13;;;;;;;8.13;4.85;;;;;;;19.80;100.00;100797.06;1378570;90;21568;-77
2023/09/03 08:13:40;;;;;;;6.40;3.60;;;;;;;20.02;100.00;100803.65;1375275;90;21364;-78
2023/09/03 08:16:06;;;;;;;4.37;2.80;;;;;;;20.15;100.00;100816.33;1375668;90;21453;-77
2023/09/03 08:18:33;;;;;;;3.40;2.37;;;;;;;20.15;100.00;100816.33;1382264;89;22266;-77
2023/09/03 08:20:59;;;;;;;4.78;2.90;;;;;;;20.18;100.00;100850.86;1363536;91;21511;-76
2023/09/03 08:23:25;;;;;;;4.70;3.35;;;;;;;20.23;100.00;100849.23;1362504;91;21578;-76
2023/09/03 08:25:51;;;;;;;4.45;3.37;;;;;;;20.17;100.00;100846.48;1380490;89;21504;-77
2023/09/03 08:28:17;;;;;;;5.22;3.08;;;;;;;20.24;100.00;100844.67;1386082;89;21333;-76
2023/09/03 08:30:43;;;;;;;4.90;3.20;;;;;;;20.21;100.00;100856.65;1380762;89;21357;-76
2023/09/03 08:33:10;;;;;;;7.40;3.00;;;;;;;20.03;100.00;100860.41;1380567;89;21445;-78
2023/09/03 08:35:36;;;;;;;5.00;2.75;;;;;;;20.04;100.00;100872.80;1381040;89;22147;-79
2023/09/03 08:38:03;;;;;;;4.40;3.05;;;;;;;20.04;100.00;100870.11;1385898;89;21393;-79
2023/09/03 08:40:32;;;;;;;4.53;3.35;;;;;;;19.96;100.00;100889.90;1379245;89;21467;-78
2023/09/03 08:42:58;;;;;;;5.47;3.52;;;;;;;19.99;100.00;100894.05;1378402;89;22354;-79
2023/09/03 08:45:27;;;;;;;4.97;3.47;;;;;;;19.99;100.00;100902.11;1385641;89;21422;-79
2023/09/03 08:47:55;;;;;;;4.35;3.85;;;;;;;19.79;100.00;100904.18;1536832;89;21290;-79
2023/09/03 08:50:23;;;;;;;5.20;4.55;;;;;;;19.73;100.00;100898.23;1360369;91;21393;-78
2023/09/03 08:52:52;;;;;;;6.12;4.53;;;;;;;19.73;100.00;100898.23;1378644;89;21505;-79
2023/09/03 08:55:18;;;;;;;4.75;4.00;;;;;;;19.65;100.00;100902.88;1383730;89;22273;-78
2023/09/03 08:57:44;;;;;;;4.35;3.95;;;;;;;19.71;100.00;100911.53;1380718;89;21415;-79
2023/09/03 09:00:12;;;;;;;4.67;3.77;;;;;;;19.73;100.00;100907.63;1380292;89;21378;-79
2023/09/03 09:02:38;;;;;;;6.92;3.47;;;;;;;19.73;100.00;100907.63;1379326;89;21333;-79
2023/09/03 09:05:09;;;;;;;8.23;3.25;;;;;;;19.77;100.00;100911.59;1386366;89;21474;-78
2023/09/03 09:07:35;;;;;;;9.10;3.77;;;;;;;19.84;100.00;100900.37;1514277;89;22304;-79
2023/09/03 09:10:10;;;;;;;4.10;2.40;;;;;;;20.05;100.00;100890.56;1509850;89;21430;-78
2023/09/03 09:13:06;;;;;;;2.90;2.15;;;;;;;20.09;100.00;100897.22;1535198;89;22163;-79
2023/09/03 09:15:39;;;;;;;2.60;2.40;;;;;;;20.21;100.00;100903.68;1377606;90;21445;-78
2023/09/03 09:18:11;;;;;;;2.08;1.72;;;;;;;20.13;100.00;100901.16;1377009;89;21429;-77
2023/09/03 09:20:39;;;;;;;2.55;1.60;;;;;;;20.04;100.00;100899.66;1520418;89;21474;-78
2023/09/03 09:23:07;;;;;;;6.53;2.00;;;;;;;19.94;100.00;100895.15;1384953;89;21481;-78
2023/09/03 09:25:35;;;;;;;1.67;1.30;;;;;;;19.84;100.00;100890.14;1378397;89;21586;-78
2023/09/03 09:28:13;;;;;;;4.20;1.45;;;;;;;19.90;100.00;100887.19;1378925;89;21416;-79
2023/09/03 09:30:57;;;;;;;1.67;1.30;;;;;;;19.98;100.00;100893.74;1535396;89;21614;-78
2023/09/03 09:33:24;;;;;;;2.95;1.40;;;;;;;19.95;100.00;100896.83;1536883;89;21304;-78
2023/09/03 09:35:50;;;;;;;1.80;1.42;;;;;;;19.97;100.00;100890.23;1380215;89;22371;-78
2023/09/03 09:38:18;;;;;;;2.47;1.42;;;;;;;20.03;100.00;100879.21;1380102;89;21482;-77
2023/09/03 09:40:44;;;;;;;4.05;1.62;;;;;;;20.01;100.00;100881.26;1384937;89;22191;-77
2023/09/03 09:43:11;;;;;;;2.52;1.70;;;;;;;20.14;100.00;100863.87;1357853;91;21386;-77
2023/09/03 09:45:49;;;;;;;1.80;1.35;;;;;;;20.32;100.00;100851.74;1362428;91;22281;-76
2023/09/03 09:48:16;;;;;;;3.05;1.15;;;;;;;20.53;100.00;100846.77;1377186;89;21452;-77
2023/09/03 09:50:46;;;;;;;2.05;1.32;;;;;;;20.64;100.00;100834.89;1386051;89;22243;-77
2023/09/03 09:53:24;;;;;;;;;;;;;;;20.71;100.00;100830.37;1538883;89;22367;-78
2023/09/03 09:56:03;;;;;;;1.47;1.30;;;;;;;20.86;100.00;100826.64;1512880;89;20254;-77
2023/09/03 09:58:40;;;;;;;4.60;1.22;;;;;;;21.04;100.00;100830.91;1436049;89;22427;-77
2023/09/03 10:01:08;;;;;;;9.30;1.45;;;;;;;21.14;100.00;100834.00;1378661;89;21438;-77
2023/09/03 10:03:47;;;;;;;4.22;1.00;;;;;;;21.24;100.00;100824.70;1378700;89;22199;-77
2023/09/03 10:06:15;;;;;;;2.30;1.30;;;;;;;21.35;100.00;100822.73;1536733;89;21334;-77
2023/09/03 10:08:45;;;;;;;4.53;1.10;;;;;;;21.48;100.00;100828.11;1383782;89;22191;-78
2023/09/03 10:11:12;;;;;;;2.15;0.82;;;;;;;21.65;100.00;100821.77;1536734;89;21422;-78
2023/09/03 10:13:42;;;;;;;1.32;1.05;;;;;;;21.81;100.00;100819.14;1379410;89;21340;-77
2023/09/03 10:16:09;;;;;;;;;;;;;;;22.01;100.00;100809.61;1378392;89;21363;-77
2023/09/03 10:18:48;;;;;;;1.85;1.00;;;;;;;22.16;100.00;100806.67;1417851;89;20343;-78
2023/09/03 10:21:23;;;;;;;2.08;0.70;;;;;;;22.28;100.00;100796.36;1536828;89;21482;-78
2023/09/03 10:23:51;;;;;;;1.10;0.72;;;;;;;22.38;100.00;100807.19;1537510;89;21417;-78
2023/09/03 10:26:25;;;;;;;2.15;0.80;;;;;;;22.35;100.00;100807.63;1378251;89;21349;-77
2023/09/03 10:29:00;;;;;;;0.75;0.42;;;;;;;22.28;100.00;100811.72;1531159;89;21438;-77
2023/09/03 10:31:27;;;;;;;0.60;0.60;;;;;;;22.19;100.00;100813.83;1360589;92;21436;-78
2023/09/03 10:33:53;;;;;;;0.45;0.45;;;;;;;22.09;100.00;100808.84;1379999;89;21708;-77
2023/09/03 10:36:20;;;;;;;1.80;0.57;;;;;;;22.01;100.00;100810.47;1386699;89;21364;-78
2023/09/03 10:38:47;;;;;;;1.27;0.78;;;;;;;21.92;100.00;100810.37;1420248;89;21400;-77
2023/09/03 10:41:23;;;;;;;0.62;0.62;;;;;;;21.91;100.00;100806.03;1361427;91;21482;-77
2023/09/03 10:43:53;;;;;;;1.02;0.53;;;;;;;22.02;100.00;100799.16;1514818;89;21349;-78
2023/09/03 10:46:27;;;;;;;0.93;0.72;;;;;;;22.10;100.00;100794.88;1530070;89;21400;-77
2023/09/03 10:48:56;;;;;;;0.57;0.57;;;;;;;22.18;100.00;100792.47;1536744;89;21364;-77
2023/09/03 10:51:37;;;;;;;0.93;0.70;;;;;;;22.16;100.00;100794.54;1359476;91;21519;-78
2023/09/03 10:54:24;;;;;;;0.65;0.50;;;;;;;22.22;100.00;100791.02;1536730;89;21475;-77
2023/09/03 10:57:15;;;;;;;0.78;0.70;;;;;;;22.24;100.00;100792.45;1377663;89;21555;-78
2023/09/03 11:00:04;;;;;;;0.70;0.50;;;;;;;22.20;100.00;100789.05;1536891;89;22258;-78
2023/09/03 11:02:30;;;;;;;0.53;0.42;;;;;;;22.24;100.00;100786.21;1536511;89;21525;-77
2023/09/03 11:05:23;;;;;;;1.65;0.78;;;;;;;22.35;100.00;100790.09;1387995;89;21371;-78
2023/09/03 11:08:29;;;;;;;0.70;0.70;;;;;;;22.46;100.00;100788.88;1536736;89;21349;-78
2023/09/03 11:10:54;;;;;;;1.30;0.70;;;;;;;22.68;100.00;100792.59;1533755;89;22421;-78
2023/09/03 11:13:20;;;;;;;3.30;0.40;;;;;;;22.89;100.00;100802.19;1365581;89;21510;-78
2023/09/03 11:15:52;;;;;;;0.47;0.47;;;;;;;22.94;100.00;100804.53;1536703;89;22246;-78
2023/09/03 11:18:20;;;;;;;0.53;0.50;;;;;;;23.00;100.00;100799.33;1454911;89;22369;-77
2023/09/03 11:20:48;;;;;;;1.07;0.50;;;;;;;23.05;100.00;100795.45;1384153;89;22272;-77
2023/09/03 11:23:15;;;;;;;0.60;0.35;;;;;;;23.07;100.00;100785.24;1384831;89;21533;-77
2023/09/03 11:25:41;;;;;;;1.37;0.50;;;;;;;23.14;100.00;100792.24;1379944;89;21408;-77
2023/09/03 11:28:14;;;;;;;0.82;0.42;;;;;;;23.18;100.00;100787.22;1380535;89;21415;-77
2023/09/03 11:30:41;;;;;;;0.80;0.42;;;;;;;23.33;100.00;100789.06;1377637;90;21519;-78
2023/09/03 11:33:27;;;;;;;1.12;0.70;;;;;;;23.58;100.00;100786.82;1382374;89;21555;-78